C Handy — V7VW8 — position and weather

sailwx.info

Track history (hours):
 
Tides and Currents Weather Stations Pressure Air Temp Water Temp Dewpoint Dewpoint Depression Visibility Wind Speed Wind Dir Waves Ship Positions

C Handy

Last reported at 2017-Mar-29 19:25 UTC. Time now 2017-Mar-30 12:50 UTC.
Position S 34°51' W 057°23'.

Length 186 m; draft 9.5 m.

Type: Cargo ship. MMSI: 538004231.

Date/timePositionNaut miles runAvg speedWind from/ knotsBaromVisibWave heightAir tempDewpointWater temp
2017-Mar-29 19:25S 34°51' W 057°23'7 2.3
2017-Mar-29 16:20S 34°48' W 057°30'810.5
2017-Mar-29 15:33S 34°45' W 057°39'10 9.6
2017-Mar-29 14:33S 34°43' W 057°50'1110.8
2017-Mar-29 13:33S 34°40' W 058°03'1211.1
2017-Mar-29 12:31S 34°35' W 058°16'  
2017-Mar-26 05:26S 34°13' W 058°07'1011.1
2017-Mar-26 04:33S 34°21' W 058°01'1111.2
2017-Mar-26 03:34S 34°32' W 057°56'1010.0
2017-Mar-26 02:33S 34°42' W 057°55'1212.4
2017-Mar-26 01:34S 34°44' W 057°41'1212.2
2017-Mar-26 00:34S 34°49' W 057°27'1212.1
2017-Mar-25 23:34S 34°57' W 057°16'  
Track history (hours):
 
Tides and Currents Weather Stations Pressure Air Temp Water Temp Dewpoint Dewpoint Depression Visibility Wind Speed Wind Dir Waves Ship Positions

C Handy

Last reported at 2017-Mar-29 19:25 UTC. Time now 2017-Mar-30 12:50 UTC.
Position S 34°51' W 057°23'.

Length 186 m; draft 9.5 m.

Type: Cargo ship. MMSI: 538004231.

Date/timePositionNaut miles runAvg speedWind from/ knotsBaromVisibWave heightAir tempDewpointWater temp
2017-Mar-29 19:25S 34°51' W 057°23'7 2.3
2017-Mar-29 16:20S 34°48' W 057°30'810.5
2017-Mar-29 15:33S 34°45' W 057°39'10 9.6
2017-Mar-29 14:33S 34°43' W 057°50'1110.8
2017-Mar-29 13:33S 34°40' W 058°03'1211.1
2017-Mar-29 12:31S 34°35' W 058°16'  
2017-Mar-26 05:26S 34°13' W 058°07'1011.1
2017-Mar-26 04:33S 34°21' W 058°01'1111.2
2017-Mar-26 03:34S 34°32' W 057°56'1010.0
2017-Mar-26 02:33S 34°42' W 057°55'1212.4
2017-Mar-26 01:34S 34°44' W 057°41'1212.2
2017-Mar-26 00:34S 34°49' W 057°27'1212.1
2017-Mar-25 23:34S 34°57' W 057°16'  

Dump ship's entire track history